createdAt,value
2022-12-12T00:02:00.620Z,99342.22
2022-12-12T00:05:05.758Z,99314.22
2022-12-12T00:08:09.039Z,99318.56
2022-12-12T00:11:11.833Z,99339.47
2022-12-12T00:14:14.914Z,99340.28
2022-12-12T00:17:17.629Z,99303.31
2022-12-12T00:20:22.743Z,99320.97
2022-12-12T00:23:26.259Z,99302.50
2022-12-12T00:26:32.625Z,99306.09
2022-12-12T00:29:35.791Z,99294.84
2022-12-12T00:32:38.707Z,99308.47
2022-12-12T00:35:41.425Z,99323.34
2022-12-12T00:38:44.463Z,99282.44
2022-12-12T00:41:47.207Z,99290.28
2022-12-12T00:44:50.226Z,99294.03
2022-12-12T00:47:52.887Z,99309.66
2022-12-12T00:50:56.786Z,99310.75
2022-12-12T00:53:59.980Z,99323.09
2022-12-12T00:57:03.266Z,99308.34
2022-12-12T01:00:08.619Z,99278.47
2022-12-12T01:03:11.902Z,99280.19
2022-12-12T01:06:15.272Z,99283.03
2022-12-12T01:09:18.346Z,99295.41
2022-12-12T01:12:21.227Z,99267.28
2022-12-12T01:15:24.587Z,99267.09
2022-12-12T01:18:27.733Z,99298.72
2022-12-12T01:21:31.167Z,99268.56
2022-12-12T01:24:34.030Z,99273.03
2022-12-12T01:27:37.740Z,99256.88
2022-12-12T01:30:40.550Z,99270.97
2022-12-12T01:33:46.860Z,99256.81
2022-12-12T01:36:49.720Z,99253.28
2022-12-12T01:39:52.775Z,99273.69
2022-12-12T01:42:56.259Z,99243.22
2022-12-12T01:46:02.931Z,99287.97
2022-12-12T01:49:24.861Z,99274.88
2022-12-12T01:52:32.169Z,99260.53
2022-12-12T01:55:35.346Z,99237.47
2022-12-12T01:58:41.460Z,99261.66
2022-12-12T02:01:45.081Z,99211.53
2022-12-12T02:04:48.951Z,99261.41
2022-12-12T02:07:52.104Z,99234.41
2022-12-12T02:10:55.525Z,99224.59
2022-12-12T02:13:59.752Z,99243.09
2022-12-12T02:17:21.659Z,99207.22
2022-12-12T02:20:36.387Z,99223.06
2022-12-12T02:24:05.303Z,99216.94
2022-12-12T02:27:22.386Z,99251.75
2022-12-12T02:30:53.296Z,99210.22
2022-12-12T02:34:19.070Z,99228.88
2022-12-12T02:37:31.260Z,99254.53
2022-12-12T02:41:02.756Z,99261.25
2022-12-12T02:44:24.713Z,99259.78
2022-12-12T02:47:32.460Z,99243.13
2022-12-12T02:50:48.019Z,99213.44
2022-12-12T02:53:50.903Z,99235.59
2022-12-12T02:56:59.480Z,99221.69
2022-12-12T03:00:08.594Z,99220.19
2022-12-12T03:04:07.904Z,99260.00
2022-12-12T03:07:49.256Z,99258.25
2022-12-12T03:11:08.233Z,99208.97
2022-12-12T03:14:23.691Z,99252.19
2022-12-12T03:17:42.589Z,99201.44
2022-12-12T03:20:53.728Z,99224.34
2022-12-12T03:24:01.909Z,99204.88
2022-12-12T03:27:12.794Z,99236.00
2022-12-12T03:30:18.778Z,99183.97
2022-12-12T03:33:54.233Z,99191.19
2022-12-12T03:37:12.380Z,99193.28
2022-12-12T03:40:22.110Z,99219.78
2022-12-12T03:43:32.899Z,99227.88
2022-12-12T03:47:05.980Z,99204.16
2022-12-12T03:50:22.250Z,99229.59
2022-12-12T03:53:44.665Z,99210.81
2022-12-12T03:57:00.408Z,99187.00
2022-12-12T04:00:11.555Z,99167.22
2022-12-12T04:03:45.538Z,99214.66
2022-12-12T04:07:09.875Z,99215.56
2022-12-12T04:10:31.818Z,99158.34
2022-12-12T04:14:00.831Z,99170.50
2022-12-12T04:17:05.129Z,99201.56
2022-12-12T04:20:43.193Z,99200.63
2022-12-12T04:23:55.250Z,99163.59
2022-12-12T04:27:03.015Z,99200.84
2022-12-12T04:30:09.075Z,99170.97
2022-12-12T04:33:14.106Z,99134.91
2022-12-12T04:36:19.189Z,99166.53
2022-12-12T04:39:22.708Z,99154.41
2022-12-12T04:42:29.664Z,99132.59
2022-12-12T04:45:36.525Z,99172.38
2022-12-12T04:48:53.983Z,99174.19
2022-12-12T04:52:04.626Z,99142.59
2022-12-12T04:55:15.437Z,99184.91
2022-12-12T04:58:18.677Z,99167.44
2022-12-12T05:01:58.677Z,99185.13
2022-12-12T05:05:05.078Z,99179.06
2022-12-12T05:08:15.742Z,99192.16
2022-12-12T05:11:19.406Z,99144.47
2022-12-12T05:14:23.058Z,99155.09
2022-12-12T05:17:31.791Z,99156.31
2022-12-12T05:20:35.554Z,99136.78
2022-12-12T05:23:38.594Z,99159.00
2022-12-12T05:32:13.739Z,99131.38
2022-12-12T05:35:20.471Z,99175.56
2022-12-12T05:38:23.708Z,99149.03
2022-12-12T05:41:27.272Z,99149.09
2022-12-12T05:44:31.584Z,99138.59
2022-12-12T05:47:40.245Z,99132.44
2022-12-12T05:50:43.530Z,99180.09
2022-12-12T05:53:50.677Z,99129.91
2022-12-12T05:56:56.938Z,99125.56
2022-12-12T06:00:25.234Z,99169.91
2022-12-12T06:03:28.284Z,99154.00
2022-12-12T06:06:31.924Z,99128.25
2022-12-12T06:09:35.816Z,99171.47
2022-12-12T06:12:39.594Z,99153.28
2022-12-12T06:15:42.962Z,99115.38
2022-12-12T06:18:54.153Z,99119.75
2022-12-12T06:21:57.405Z,99121.72
2022-12-12T06:25:01.073Z,99166.75
2022-12-12T06:28:07.249Z,99167.69
2022-12-12T06:31:13.650Z,99158.06
2022-12-12T06:34:17.077Z,99158.22
2022-12-12T06:37:20.750Z,99154.63
2022-12-12T06:40:23.910Z,99162.56
2022-12-12T06:43:27.423Z,99160.81
2022-12-12T06:46:31.061Z,99120.44
2022-12-12T06:49:36.898Z,99174.09
2022-12-12T06:52:42.354Z,99176.94
2022-12-12T06:55:46.077Z,99169.13
2022-12-12T06:58:52.218Z,99183.22
2022-12-12T07:01:58.796Z,99131.50
2022-12-12T07:05:01.923Z,99175.41
2022-12-12T07:08:05.469Z,99168.38
2022-12-12T07:11:12.408Z,99173.69
2022-12-12T07:14:16.125Z,99126.22
2022-12-12T07:17:19.376Z,99145.53
2022-12-12T07:20:23.006Z,99152.69
2022-12-12T07:23:26.283Z,99145.63
2022-12-12T08:20:17.603Z,99151.75
2022-12-12T08:23:20.907Z,99163.22
2022-12-12T08:26:32.614Z,99155.38
2022-12-12T08:29:36.819Z,99169.53
2022-12-12T08:32:42.912Z,99202.91
2022-12-12T08:35:46.584Z,99215.25
2022-12-12T08:38:53.420Z,99162.59
2022-12-12T08:41:56.818Z,99170.41
2022-12-12T08:45:02.525Z,99173.16
2022-12-12T08:48:07.359Z,99176.59
2022-12-12T08:51:10.628Z,99221.66
2022-12-12T08:54:14.316Z,99175.03
2022-12-12T08:57:20.240Z,99176.72
2022-12-12T09:00:33.134Z,99187.53
2022-12-12T09:03:36.152Z,99170.22
2022-12-12T09:06:39.643Z,99207.13
2022-12-12T09:09:42.648Z,99154.38
2022-12-12T09:12:46.060Z,99160.44
2022-12-12T09:15:53.079Z,99178.91
2022-12-12T09:18:57.224Z,99168.38
2022-12-12T09:22:00.311Z,99210.69
2022-12-12T09:25:05.504Z,99157.97
2022-12-12T09:28:08.546Z,99165.03
2022-12-12T09:31:13.582Z,99203.84
2022-12-12T09:38:01.756Z,99162.41
2022-12-12T09:41:11.342Z,99187.25
2022-12-12T09:44:22.111Z,99146.06
2022-12-12T09:47:36.946Z,99160.72
2022-12-12T09:50:45.312Z,99150.28
2022-12-12T09:53:50.019Z,99171.47
2022-12-12T09:57:32.070Z,99213.63
2022-12-12T10:00:39.091Z,99180.22
2022-12-12T10:03:56.111Z,99212.00
2022-12-12T10:07:24.256Z,99224.16
2022-12-12T10:10:37.554Z,99220.56
2022-12-12T10:13:41.436Z,99165.34
2022-12-12T10:16:45.191Z,99166.47
2022-12-12T10:20:00.879Z,99172.56
2022-12-12T10:23:33.257Z,99192.00
2022-12-12T10:26:37.435Z,99168.09
2022-12-12T10:29:47.969Z,99170.03
2022-12-12T10:33:15.879Z,99161.47
2022-12-12T10:36:54.233Z,99178.22
2022-12-12T10:40:25.994Z,99219.72
2022-12-12T10:43:40.125Z,99212.69
2022-12-12T10:47:03.536Z,99223.22
2022-12-12T10:50:45.184Z,99169.50
2022-12-12T10:53:48.971Z,99167.75
2022-12-12T10:57:20.257Z,99173.91
2022-12-12T11:00:32.195Z,99217.00
2022-12-12T11:03:45.902Z,99167.66
2022-12-12T11:06:52.340Z,99177.34
2022-12-12T11:10:01.892Z,99165.94
2022-12-12T11:13:11.513Z,99210.91
2022-12-12T11:16:18.849Z,99195.88
2022-12-12T11:19:24.834Z,99173.81
2022-12-12T11:22:28.835Z,99167.75
2022-12-12T11:26:01.967Z,99218.75
2022-12-12T11:29:08.035Z,99186.97
2022-12-12T11:32:25.749Z,99175.59
2022-12-12T11:35:45.562Z,99183.53
2022-12-12T11:38:54.342Z,99206.38
2022-12-12T11:42:06.544Z,99182.63
2022-12-12T11:45:10.073Z,99229.13
2022-12-12T11:48:31.769Z,99229.00
2022-12-12T11:51:38.114Z,99186.81
2022-12-12T11:54:41.270Z,99164.00
2022-12-12T11:58:03.299Z,99186.25
2022-12-12T12:01:32.909Z,99221.50
2022-12-12T12:05:10.321Z,99197.72
2022-12-12T12:08:22.391Z,99218.91
2022-12-12T12:11:44.853Z,99221.31
2022-12-12T12:15:05.510Z,99188.69
2022-12-12T12:18:31.464Z,99202.78
2022-12-12T12:21:42.507Z,99244.88
2022-12-12T12:24:47.817Z,99231.78
2022-12-12T12:28:28.424Z,99237.06
2022-12-12T12:31:53.551Z,99238.81
2022-12-12T12:35:16.476Z,99235.38
2022-12-12T12:38:28.804Z,99201.97
2022-12-12T12:42:22.951Z,99230.19
2022-12-12T12:45:26.590Z,99242.25
2022-12-12T12:48:37.311Z,99207.16
2022-12-12T12:51:51.155Z,99207.88
2022-12-12T12:54:57.162Z,99214.72
2022-12-12T12:58:01.706Z,99221.72
2022-12-12T13:01:12.733Z,99239.63
2022-12-12T13:04:27.070Z,99249.25
2022-12-12T13:07:40.762Z,99243.22
2022-12-12T13:11:08.538Z,99211.44
2022-12-12T13:14:30.166Z,99230.75
2022-12-12T13:17:47.923Z,99220.19
2022-12-12T13:21:16.994Z,99201.81
2022-12-12T13:24:31.629Z,99214.19
2022-12-12T13:27:46.204Z,99251.03
2022-12-12T13:31:17.558Z,99260.69
2022-12-12T13:34:26.195Z,99228.81
2022-12-12T13:37:32.712Z,99250.75
2022-12-12T13:40:41.025Z,99227.16
2022-12-12T13:44:00.409Z,99212.94
2022-12-12T13:47:05.540Z,99225.81
2022-12-12T13:50:12.071Z,99272.50
2022-12-12T13:53:19.360Z,99274.25
2022-12-12T13:56:46.689Z,99229.41
2022-12-12T14:00:17.137Z,99260.19
2022-12-12T14:03:30.648Z,99241.84
2022-12-12T14:06:34.125Z,99233.00
2022-12-12T14:09:48.385Z,99223.25
2022-12-12T14:12:53.314Z,99239.22
2022-12-12T14:15:59.761Z,99285.78
2022-12-12T14:19:09.003Z,99244.44
2022-12-12T14:22:29.603Z,99291.00
2022-12-12T14:25:41.577Z,99271.53
2022-12-12T14:29:06.976Z,99266.47
2022-12-12T14:32:13.154Z,99291.06
2022-12-12T14:35:33.527Z,99262.81
2022-12-12T14:39:05.809Z,99291.06
2022-12-12T14:43:19.325Z,99295.38
2022-12-12T14:46:24.695Z,99266.19
2022-12-12T14:49:28.437Z,99276.69
2022-12-12T14:52:31.508Z,99254.63
2022-12-12T14:55:34.504Z,99287.28
2022-12-12T14:59:06.929Z,99302.28
2022-12-12T15:02:31.530Z,99284.63
2022-12-12T15:05:34.595Z,99289.97
2022-12-12T15:08:43.058Z,99299.56
2022-12-12T15:11:47.495Z,99263.50
2022-12-12T15:14:52.047Z,99307.63
2022-12-12T15:17:58.875Z,99299.63
2022-12-12T15:21:01.987Z,99274.03
2022-12-12T15:24:05.120Z,99296.94
2022-12-12T15:27:08.458Z,99317.16
2022-12-12T15:30:41.611Z,99310.97
2022-12-12T15:34:07.590Z,99289.78
2022-12-12T15:37:26.575Z,99313.59
2022-12-12T15:40:34.425Z,99293.97
2022-12-12T15:43:39.574Z,99301.94
2022-12-12T15:46:42.878Z,99305.38
2022-12-12T15:49:46.705Z,99310.72
2022-12-12T15:53:05.922Z,99289.63
2022-12-12T15:56:11.870Z,99307.13
2022-12-12T15:59:17.285Z,99309.84
2022-12-12T16:02:27.756Z,99319.63
2022-12-12T16:05:38.692Z,99305.59
2022-12-12T16:08:54.684Z,99309.03
2022-12-12T16:11:59.157Z,99324.88
2022-12-12T16:15:19.149Z,99351.31
2022-12-12T16:18:24.344Z,99341.53
2022-12-12T16:21:28.321Z,99325.66
2022-12-12T16:24:37.475Z,99338.00
2022-12-12T16:27:40.184Z,99340.44
2022-12-12T16:30:45.427Z,99340.56
2022-12-12T16:33:48.250Z,99330.91
2022-12-12T16:36:51.402Z,99336.22
2022-12-12T16:39:54.195Z,99309.75
2022-12-12T16:43:07.795Z,99333.38
2022-12-12T16:46:25.215Z,99359.75
2022-12-12T16:49:28.552Z,99315.78
2022-12-12T16:52:31.354Z,99325.31
2022-12-12T16:55:36.194Z,99350.78
2022-12-12T16:58:39.439Z,99318.00
2022-12-12T17:01:42.692Z,99376.06
2022-12-12T17:04:45.750Z,99367.22
2022-12-12T17:07:48.817Z,99372.47
2022-12-12T17:11:09.261Z,99375.94
2022-12-12T17:14:26.750Z,99334.66
2022-12-12T17:17:30.457Z,99353.84
2022-12-12T17:20:37.277Z,99385.72
2022-12-12T17:23:41.808Z,99375.75
2022-12-12T17:26:48.739Z,99381.97
2022-12-12T17:29:52.465Z,99391.44
2022-12-12T17:36:17.739Z,99389.56
2022-12-12T17:39:24.827Z,99385.28
2022-12-12T17:42:33.266Z,99403.78
2022-12-12T17:45:36.780Z,99409.06
2022-12-12T17:48:41.100Z,99421.41
2022-12-12T17:51:44.098Z,99396.72
2022-12-12T17:55:54.127Z,99392.25
2022-12-12T17:58:10.883Z,99402.72
2022-12-12T18:01:16.916Z,99436.16
2022-12-12T18:04:28.053Z,99423.81
2022-12-12T18:08:13.208Z,99416.59
2022-12-12T18:11:27.903Z,99422.69
2022-12-12T18:14:31.593Z,99427.72
2022-12-12T18:17:35.797Z,99429.50
2022-12-12T18:20:40.232Z,99445.28
2022-12-12T18:23:46.151Z,99406.53
2022-12-12T18:26:55.803Z,99442.69
2022-12-12T18:29:59.628Z,99409.78
2022-12-12T18:33:03.273Z,99420.53
2022-12-12T18:36:10.325Z,99432.78
2022-12-12T18:39:20.817Z,99425.69
2022-12-12T18:42:25.041Z,99451.13
2022-12-12T18:45:31.698Z,99418.19
2022-12-12T18:48:37.219Z,99466.56
2022-12-12T18:59:10.822Z,99430.94
2022-12-12T19:02:15.484Z,99441.19
2022-12-12T19:05:19.511Z,99462.38
2022-12-12T19:08:25.649Z,99455.25
2022-12-12T19:22:58.754Z,99490.84
2022-12-12T19:26:08.058Z,99515.44
2022-12-12T19:29:18.505Z,99525.94
2022-12-12T19:32:23.345Z,99481.72
2022-12-12T19:58:26.659Z,99509.91
2022-12-12T20:01:36.239Z,99546.13
2022-12-12T20:04:43.500Z,99552.84
2022-12-12T20:07:50.914Z,99526.19
2022-12-12T20:10:56.938Z,99550.91
2022-12-12T20:14:04.153Z,99530.72
2022-12-12T20:17:07.829Z,99565.63
2022-12-12T20:20:12.489Z,99566.19
2022-12-12T20:23:16.281Z,99557.50
2022-12-12T20:26:23.709Z,99584.88
2022-12-12T20:29:30.313Z,99593.44
2022-12-12T20:32:35.155Z,99585.63
2022-12-12T20:35:38.696Z,99594.03
2022-12-12T20:38:43.799Z,99578.13
2022-12-12T20:41:48.104Z,99601.69
2022-12-12T20:44:52.216Z,99609.72
2022-12-12T20:47:55.704Z,99617.53
2022-12-12T20:54:59.630Z,99624.19
2022-12-12T20:58:03.489Z,99623.16
2022-12-12T21:01:34.119Z,99633.75
2022-12-12T21:04:38.223Z,99601.00
2022-12-12T21:07:41.820Z,99595.38
2022-12-12T21:10:45.304Z,99613.84
2022-12-12T21:13:50.911Z,99599.59
2022-12-12T21:16:54.914Z,99633.75
2022-12-12T21:20:01.777Z,99638.28
2022-12-12T21:23:16.585Z,99611.59
2022-12-12T21:26:29.026Z,99642.75
2022-12-12T21:29:32.961Z,99647.09
2022-12-12T21:32:41.104Z,99614.38
2022-12-12T21:35:44.910Z,99635.44
2022-12-12T21:39:04.989Z,99622.03
2022-12-12T21:42:18.901Z,99641.31
2022-12-12T21:45:22.354Z,99621.09
2022-12-12T21:48:27.554Z,99644.72
2022-12-12T21:51:33.259Z,99634.94
2022-12-12T21:54:37.466Z,99625.38
2022-12-12T21:57:40.625Z,99654.38
2022-12-12T22:00:44.123Z,99658.03
2022-12-12T22:03:48.711Z,99692.34
2022-12-12T22:06:53.110Z,99651.59
2022-12-12T22:09:57.703Z,99641.75
2022-12-12T22:13:13.502Z,99666.13
2022-12-12T22:16:19.634Z,99663.97
2022-12-12T22:19:22.957Z,99628.66
2022-12-12T22:22:25.680Z,99653.50
2022-12-12T22:25:29.641Z,99664.78
2022-12-12T22:28:32.555Z,99697.50
2022-12-12T22:31:40.426Z,99678.19
2022-12-12T22:34:45.446Z,99701.97
2022-12-12T22:37:48.745Z,99662.13
2022-12-12T22:40:57.834Z,99669.94
2022-12-12T22:44:06.074Z,99670.44
2022-12-12T22:47:40.164Z,99694.69
2022-12-12T22:50:43.546Z,99666.34
2022-12-12T22:53:46.763Z,99675.31
2022-12-12T22:56:50.504Z,99689.50
2022-12-12T22:59:53.433Z,99678.16
2022-12-12T23:02:58.504Z,99707.16
2022-12-12T23:06:08.953Z,99678.09
2022-12-12T23:09:15.525Z,99690.47
2022-12-12T23:12:22.989Z,99691.53
2022-12-12T23:15:27.100Z,99706.88
2022-12-12T23:18:29.946Z,99707.44
2022-12-12T23:21:33.997Z,99697.75
2022-12-12T23:24:37.114Z,99719.72
2022-12-12T23:27:40.234Z,99735.44
2022-12-12T23:30:43.232Z,99728.97
2022-12-12T23:33:47.081Z,99726.91
2022-12-12T23:36:54.427Z,99708.16
2022-12-12T23:39:57.704Z,99716.75
2022-12-12T23:43:00.436Z,99759.03
2022-12-12T23:46:05.106Z,99752.97
2022-12-12T23:49:17.717Z,99740.22
2022-12-12T23:52:20.767Z,99752.31
2022-12-12T23:55:23.747Z,99719.63
2022-12-12T23:58:27.122Z,99733.34
